Flight Track Log - Related Links

Times and Time Zones

All times are in EDT time to prevent confusion due to time zone crossing. See the N422TB flight status page for this flight to view local times or setup timezone preferences in your user account.

Time Position Orientation Groundspeed Altitude Reporting Facility
EDT Latitude Longitude Course Direction KTS MPH feet Rate Location/Type
Fri 04:15:51 PM 28.3000 -81.4333 300° West 104 120 400  Level Orlando TRACON
Fri 04:16:51 PM 28.3167 -81.4667 300° West 109 125 1,600 1,095 Climbing Orlando TRACON
Fri 04:17:57 PM 28.3500 -81.4833 336° Northwest 108 124 2,700 714 Climbing Orlando TRACON
Fri 04:18:57 PM 28.3833 -81.4833 360° North 148 170 3,100 350 Climbing Orlando TRACON
Fri 04:19:57 PM 28.4167 -81.4833 360° North 156 180 3,400 425 Climbing Orlando TRACON
Fri 04:21:04 PM 28.4167 -81.4333 90° East 149 171 4,000 313 Climbing Orlando TRACON
Fri 04:21:52 PM 28.4167 -81.3833 90° East 165 190 4,000 56 Level Orlando TRACON
Fri 04:22:52 PM 28.4167 -81.3333 90° East 175 201 4,100  Climbing Orlando TRACON
Fri 04:23:52 PM 28.4167 -81.2667 90° East 177 204 4,000 -50 Descending Orlando TRACON
Fri 04:24:53 PM 28.4167 -81.2167 90° East 175 201 4,000  Level Orlando TRACON
Fri 04:25:59 PM 28.4167 -81.1500 90° East 181 208 4,000 429 Level Orlando TRACON
Fri 04:26:59 PM 28.4000 -81.1000 111° Southeast 146 168 4,900 900 Climbing Orlando TRACON
Fri 04:27:59 PM 28.3833 -81.0667 120° Southeast 141 162 5,800 850 Climbing Orlando TRACON
Fri 04:28:59 PM 28.3667 -81.0167 111° Southeast 145 167 6,600 842 Climbing Orlando TRACON
Fri 04:29:53 PM 28.3500 -80.9833 120° Southeast 148 170 7,400 845 Climbing Orlando TRACON
Fri 04:30:10 PM 28.3417 -80.9797 159° South 142 163 7,600 779 Climbing Miami Center
Fri 04:31:10 PM 28.3242 -80.9389 116° Southeast 142 163 8,400 750 Climbing Miami Center
Fri 04:32:10 PM 28.2936 -80.9119 142° Southeast 142 163 9,100 700 Climbing Miami Center
Fri 04:33:10 PM 28.2522 -80.8986 164° South 142 163 9,800 500 Climbing Miami Center
Fri 04:34:10 PM 28.2108 -80.8878 167° South 147 169 10,100 150 Climbing Miami Center
Fri 04:35:10 PM 28.1631 -80.8742 166° South 167 192 10,100  Level Miami Center
Fri 04:35:54 PM 28.1333 -80.8667 167° South 190 219 10,100  Level Orlando TRACON
Fri 04:36:54 PM 28.0833 -80.8500 164° South 182 209 10,100 -61 Level Orlando TRACON
Fri 04:39:10 PM 27.9744 -80.8253 169° South 181 208 9,900 -214 Descending Miami Center
Fri 04:40:10 PM 27.9144 -80.8114 168° South 186 214 9,400 -450 Descending Miami Center
Fri 04:41:10 PM 27.8625 -80.8025 171° South 186 214 9,000 -450 Descending Miami Center
Fri 04:42:10 PM 27.8106 -80.7939 172° South 191 220 8,500 -450 Descending Miami Center
Fri 04:43:10 PM 27.7628 -80.7897 176° South 196 226 8,100 -200 Descending Miami Center
Fri 04:44:10 PM 27.7128 -80.7856 176° South 189 217 8,100  Level Miami Center
Fri 04:45:10 PM 27.6586 -80.7814 176° South 178 205 8,100  Level Miami Center
Fri 04:46:10 PM 27.6086 -80.7775 176° South 178 205 8,100  Level Miami Center
Fri 04:47:10 PM 27.5608 -80.7689 171° South 178 205 8,100  Level Miami Center
Fri 04:48:10 PM 27.5169 -80.7650 176° South 178 205 8,100  Level Miami Center
Fri 04:49:10 PM 27.4711 -80.7611 176° South 178 205 8,100  Level Miami Center
Fri 04:50:10 PM 27.4172 -80.7544 174° South 178 205 8,100  Level Miami Center
Fri 04:51:10 PM 27.3692 -80.7483 174° South 178 205 8,100  Level Miami Center
Fri 04:52:10 PM 27.3192 -80.7442 176° South 178 205 8,100  Level Miami Center
Fri 04:53:10 PM 27.2736 -80.7381 173° South 183 211 8,100  Level Miami Center
Fri 04:54:10 PM 27.2236 -80.7339 176° South 183 211 8,100  Level Miami Center
Fri 04:55:10 PM 27.1694 -80.7275 174° South 176 203 8,100  Level Miami Center
Fri 04:56:10 PM 27.1214 -80.7214 174° South 176 203 8,100  Level Miami Center
Fri 04:57:10 PM 27.0736 -80.7172 176° South 176 203 8,100  Level Miami Center
Fri 04:58:10 PM 27.0278 -80.7158 178° South 176 203 8,100  Level Miami Center
Fri 04:59:10 PM 26.9797 -80.7094 173° South 176 203 8,100 -50 Level Miami Center
Fri 05:00:10 PM 26.9236 -80.7031 174° South 181 208 8,000  Descending Miami Center
Fri 05:01:10 PM 26.8736 -80.6967 173° South 181 208 8,100 -612 Climbing Miami Center
Fri 05:03:00 PM 26.7792 -80.6617 162° South  Level FlightAware Approximate
Fri 05:07:31 PM 26.5489 -80.5817 156° South 189 217 3,500  Level Miami Center
Fri 05:08:15 PM 26.5136 -80.5667 159° South 190 219 3,200 -216 Descending Miami Center
Fri 05:09:22 PM 26.4600 -80.5394 156° South 180 207 3,100 -47 Descending Miami Center
Fri 05:10:00 PM 26.4158 -80.5219 163° South  Level FlightAware Approximate
Fri 05:10:23 PM 26.4125 -80.5169 157° South 179 206 3,100  Level Miami Center
Fri 05:11:00 PM 26.3694 -80.4930 156° South  Level FlightAware Approximate
Fri 05:11:31 PM 26.3611 -80.4947 159° South 184 212 3,000  Level Miami Center
Fri 05:12:00 PM 26.3199 -80.4682 156° South  Level FlightAware Approximate
Fri 05:12:20 PM 26.3281 -80.4750 152° Southeast 162 186 3,000  Level Miami Center
Fri 05:13:27 PM 26.2806 -80.4550 159° South 158 182 3,100 47 Climbing Miami Center
Fri 05:14:28 PM 26.2394 -80.4306 152° Southeast 161 185 3,100 -49 Level Miami Center
Fri 05:15:30 PM 26.1936 -80.4156 164° South 160 184 3,000 -341 Descending Miami Center
Fri 05:16:31 PM 26.1631 -80.3914 145° Southeast 146 168 2,400 -393 Descending Miami Center
Fri 05:17:32 PM 26.1722 -80.3547 74° East 110 127 2,200 -49 Descending Miami Center
Fri 05:18:34 PM 26.1794 -80.3178 78° East 120 138 2,300 -186 Climbing Miami Center
Fri 05:19:41 PM 26.1825 -80.2786 85° East 110 127 1,800 -517 Descending Miami Center
Fri 05:20:30 PM 26.1850 -80.2556 83° East 87 100 1,300 -486 Descending Miami Center
Fri 05:21:32 PM 26.1897 -80.2300 78° East 87 100 900 -419 Descending Miami Center
Fri 05:22:39 PM 26.1947 -80.2000 79° East 83 96 400 -448 Descending Miami Center
Fri 05:24:00 PM 26.1833 -80.1667 77° East  Level FlightAware Approximate
Fri 05:31:00 PM 26.1973 -80.1707 77° East  Level Estimated

Login

Don't have an account? Register now (free) for customized features, flight alerts, and more!